Time;durP1;ratioP1;P1;durP2;ratioP2;P2;SDS_P1;SDS_P2;PMS_P1;PMS_P2;Temp;Humidity;BMP_temperature;BMP_pressure;BME280_temperature;BME280_humidity;BME280_pressure;Samples;Min_cycle;Max_cycle;Signal;HPM_P1;HPM_P2
2023/07/25 00:02:02;;;;;;;3.85;3.47;;;;;;;;;;5114560;28;20040;-80
2023/07/25 00:04:36;;;;;;;4.65;3.92;;;;;;;;;;5113551;28;20089;-81
2023/07/25 00:07:07;;;;;;;3.92;3.38;;;;;;;;;;5113848;28;20047;-80
2023/07/25 00:09:34;;;;;;;3.45;3.20;;;;;;;;;;5113898;28;20051;-79
2023/07/25 00:12:01;;;;;;;3.60;3.30;;;;;;;;;;5112710;28;20093;-79
2023/07/25 00:14:28;;;;;;;4.55;3.38;;;;;;;;;;5113442;28;20047;-81
2023/07/25 00:16:56;;;;;;;4.30;2.90;;;;;;;;;;5114538;28;20096;-80
2023/07/25 00:19:23;;;;;;;4.07;3.70;;;;;;;;;;5112965;28;20096;-78
2023/07/25 00:21:50;;;;;;;3.67;3.38;;;;;;;;;;5114765;28;20093;-80
2023/07/25 00:24:17;;;;;;;4.03;3.65;;;;;;;;;;5113175;28;20050;-79
2023/07/25 00:26:44;;;;;;;4.00;3.70;;;;;;;;;;5114101;28;20047;-79
2023/07/25 00:29:12;;;;;;;4.43;3.78;;;;;;;;;;5112670;28;20101;-80
2023/07/25 00:31:39;;;;;;;4.22;3.83;;;;;;;;;;5112270;28;20465;-79
2023/07/25 00:34:06;;;;;;;5.60;4.25;;;;;;;;;;5113717;28;20044;-79
2023/07/25 00:36:33;;;;;;;3.78;3.25;;;;;;;;;;5112125;28;20079;-79
2023/07/25 00:39:01;;;;;;;5.70;4.28;;;;;;;;;;5113823;28;20517;-78
2023/07/25 00:41:28;;;;;;;3.45;3.25;;;;;;;;;;5112414;28;20131;-79
2023/07/25 00:43:56;;;;;;;4.10;3.75;;;;;;;;;;5113337;28;20048;-80
2023/07/25 00:46:23;;;;;;;3.65;3.35;;;;;;;;;;5116795;28;20043;-81
2023/07/25 00:48:50;;;;;;;6.72;3.85;;;;;;;;;;5117287;28;20491;-83
2023/07/25 00:51:18;;;;;;;7.07;3.60;;;;;;;;;;5117834;28;20054;-83
2023/07/25 00:53:45;;;;;;;3.72;3.47;;;;;;;;;;5116808;28;20047;-83
2023/07/25 00:56:13;;;;;;;4.05;3.75;;;;;;;;;;5117262;28;20053;-83
2023/07/25 00:58:40;;;;;;;8.18;4.32;;;;;;;;;;5117096;28;20472;-82
2023/07/25 01:01:08;;;;;;;7.88;4.30;;;;;;;;;;5114776;28;20048;-81
2023/07/25 01:03:37;;;;;;;5.47;4.50;;;;;;;;;;5114852;28;20044;-82
2023/07/25 01:06:05;;;;;;;9.10;4.40;;;;;;;;;;5117282;28;20044;-83
2023/07/25 01:08:33;;;;;;;10.20;4.35;;;;;;;;;;5120124;28;20051;-82
2023/07/25 01:11:00;;;;;;;6.72;4.95;;;;;;;;;;5118071;28;20100;-82
2023/07/25 01:13:27;;;;;;;10.55;4.45;;;;;;;;;;5118262;28;20051;-82
2023/07/25 01:15:55;;;;;;;10.73;4.88;;;;;;;;;;5118594;28;20096;-83
2023/07/25 01:18:22;;;;;;;7.43;4.53;;;;;;;;;;5118705;28;20050;-82
2023/07/25 01:20:49;;;;;;;7.10;4.00;;;;;;;;;;5119133;28;20548;-82
2023/07/25 01:23:18;;;;;;;5.22;4.28;;;;;;;;;;5119086;28;20457;-83
2023/07/25 01:25:46;;;;;;;5.32;3.70;;;;;;;;;;5116748;28;20560;-81
2023/07/25 01:28:14;;;;;;;4.13;3.83;;;;;;;;;;5116601;28;20055;-81
2023/07/25 01:30:41;;;;;;;6.30;4.13;;;;;;;;;;5116890;28;20052;-82
2023/07/25 01:33:08;;;;;;;4.00;3.60;;;;;;;;;;5117462;28;20509;-81
2023/07/25 01:35:35;;;;;;;5.60;3.75;;;;;;;;;;5116220;28;20051;-81
2023/07/25 01:38:03;;;;;;;4.32;3.92;;;;;;;;;;5116048;28;20047;-83
2023/07/25 01:40:30;;;;;;;3.92;3.63;;;;;;;;;;5117419;28;20473;-82
2023/07/25 01:42:57;;;;;;;7.60;4.30;;;;;;;;;;5116805;28;20050;-81
2023/07/25 01:45:24;;;;;;;4.65;4.25;;;;;;;;;;5115657;28;20126;-82
2023/07/25 01:47:52;;;;;;;4.18;3.65;;;;;;;;;;5115595;28;20554;-82
2023/07/25 01:50:19;;;;;;;4.53;3.92;;;;;;;;;;5115604;28;20047;-82
2023/07/25 01:52:46;;;;;;;4.80;4.22;;;;;;;;;;5115639;28;20043;-82
2023/07/25 01:55:14;;;;;;;4.43;4.03;;;;;;;;;;5115012;28;20081;-81
2023/07/25 01:57:41;;;;;;;8.00;4.30;;;;;;;;;;5116432;28;20051;-81
2023/07/25 02:00:08;;;;;;;4.45;4.05;;;;;;;;;;5115364;28;20047;-81
2023/07/25 02:02:35;;;;;;;5.57;4.13;;;;;;;;;;5115303;28;20052;-80
2023/07/25 02:05:03;;;;;;;6.60;4.20;;;;;;;;;;5116353;28;20050;-81
2023/07/25 02:07:31;;;;;;;5.82;4.50;;;;;;;;;;5115860;28;20048;-80
2023/07/25 02:09:58;;;;;;;5.10;4.63;;;;;;;;;;5115715;27;20506;-81
2023/07/25 02:12:26;;;;;;;3.83;3.53;;;;;;;;;;5115981;28;20043;-81
2023/07/25 02:14:53;;;;;;;4.32;4.00;;;;;;;;;;5114725;28;20097;-81
2023/07/25 02:17:20;;;;;;;7.05;4.28;;;;;;;;;;5115267;28;20047;-81
2023/07/25 02:19:48;;;;;;;3.60;3.30;;;;;;;;;;5114712;28;20040;-81
2023/07/25 02:22:15;;;;;;;6.47;4.00;;;;;;;;;;5116383;28;20484;-83
2023/07/25 02:24:42;;;;;;;3.90;3.60;;;;;;;;;;5121113;28;20039;-83
2023/07/25 02:27:09;;;;;;;3.80;3.50;;;;;;;;;;5118975;28;20047;-82
2023/07/25 02:29:37;;;;;;;5.25;4.25;;;;;;;;;;5120290;28;20044;-82
2023/07/25 02:32:04;;;;;;;4.63;4.22;;;;;;;;;;5117976;28;20048;-81
2023/07/25 02:34:31;;;;;;;4.47;3.67;;;;;;;;;;5118170;28;20104;-81
2023/07/25 02:36:58;;;;;;;4.80;3.97;;;;;;;;;;5117290;28;20051;-82
2023/07/25 02:39:26;;;;;;;7.20;4.28;;;;;;;;;;5118404;28;20044;-82
2023/07/25 02:41:53;;;;;;;5.38;4.65;;;;;;;;;;5117399;28;20047;-81
2023/07/25 02:44:20;;;;;;;6.13;4.63;;;;;;;;;;5116504;28;20069;-81
2023/07/25 02:46:47;;;;;;;4.93;4.53;;;;;;;;;;5116419;28;20085;-82
2023/07/25 02:49:15;;;;;;;6.32;4.68;;;;;;;;;;5115742;28;20135;-82
2023/07/25 02:51:42;;;;;;;7.90;5.15;;;;;;;;;;5116011;28;20124;-80
2023/07/25 02:54:09;;;;;;;6.00;5.30;;;;;;;;;;5116263;28;20052;-81
2023/07/25 02:56:36;;;;;;;6.35;4.60;;;;;;;;;;5115827;28;20093;-81
2023/07/25 02:59:03;;;;;;;7.68;4.70;;;;;;;;;;5116843;28;20498;-82
2023/07/25 03:01:31;;;;;;;4.60;4.03;;;;;;;;;;5117195;28;20073;-82
2023/07/25 03:03:58;;;;;;;6.57;4.72;;;;;;;;;;5116148;28;20048;-80
2023/07/25 03:06:25;;;;;;;5.63;5.13;;;;;;;;;;5117856;28;20514;-82
2023/07/25 03:08:53;;;;;;;5.20;4.70;;;;;;;;;;5119428;28;20058;-82
2023/07/25 03:11:20;;;;;;;7.85;4.68;;;;;;;;;;5118280;28;20043;-81
2023/07/25 03:13:47;;;;;;;5.70;4.03;;;;;;;;;;5117918;28;20051;-82
2023/07/25 03:16:14;;;;;;;4.45;4.05;;;;;;;;;;5117168;28;20048;-82
2023/07/25 03:18:41;;;;;;;8.02;4.70;;;;;;;;;;5116916;28;20044;-82
2023/07/25 03:21:09;;;;;;;4.65;4.25;;;;;;;;;;5118324;28;20047;-82
2023/07/25 03:23:36;;;;;;;4.22;3.78;;;;;;;;;;5116970;28;20048;-82
2023/07/25 03:26:03;;;;;;;5.25;4.75;;;;;;;;;;5118054;28;20079;-82
2023/07/25 03:28:31;;;;;;;5.43;3.80;;;;;;;;;;5116054;28;20056;-82
2023/07/25 03:30:58;;;;;;;4.70;3.88;;;;;;;;;;5116302;28;20079;-82
2023/07/25 03:33:27;;;;;;;8.20;4.30;;;;;;;;;;5116313;28;20454;-83
2023/07/25 03:35:55;;;;;;;6.28;3.92;;;;;;;;;;5116678;28;20480;-82
2023/07/25 03:38:22;;;;;;;7.07;4.63;;;;;;;;;;5116762;28;20461;-82
2023/07/25 03:40:49;;;;;;;5.55;4.80;;;;;;;;;;5116830;28;20043;-82
2023/07/25 03:43:16;;;;;;;6.68;4.65;;;;;;;;;;5117666;28;20044;-81
2023/07/25 03:45:44;;;;;;;7.97;5.15;;;;;;;;;;5116155;28;20051;-82
2023/07/25 03:48:11;;;;;;;5.65;4.75;;;;;;;;;;5115582;28;20048;-81
2023/07/25 03:50:38;;;;;;;7.80;5.70;;;;;;;;;;5117252;28;20491;-81
2023/07/25 03:53:06;;;;;;;4.50;4.00;;;;;;;;;;5116790;28;20058;-81
2023/07/25 03:55:33;;;;;;;5.30;4.80;;;;;;;;;;5115549;28;20069;-83
2023/07/25 03:58:01;;;;;;;4.72;4.32;;;;;;;;;;5115120;28;20457;-82
2023/07/25 04:00:28;;;;;;;7.80;5.28;;;;;;;;;;5118190;28;20052;-82
2023/07/25 04:02:55;;;;;;;9.45;7.63;;;;;;;;;;5117388;28;20096;-82
2023/07/25 04:05:40;;;;;;;7.90;6.93;;;;;;;;;;5118036;28;20043;-82
2023/07/25 04:08:08;;;;;;;8.35;6.95;;;;;;;;;;5116072;28;20556;-82
2023/07/25 04:10:35;;;;;;;7.30;6.60;;;;;;;;;;5117206;28;20048;-82
2023/07/25 04:13:02;;;;;;;7.32;5.93;;;;;;;;;;5117183;27;20069;-82
2023/07/25 04:15:29;;;;;;;6.63;5.07;;;;;;;;;;5115984;28;20084;-82
2023/07/25 04:17:57;;;;;;;12.43;5.93;;;;;;;;;;5116606;28;20050;-80
2023/07/25 04:20:24;;;;;;;8.85;4.85;;;;;;;;;;5114384;28;20043;-82
2023/07/25 04:22:51;;;;;;;7.72;4.97;;;;;;;;;;5114702;28;20135;-82
2023/07/25 04:25:19;;;;;;;5.65;5.18;;;;;;;;;;5115774;28;20048;-82
2023/07/25 04:27:46;;;;;;;10.75;7.68;;;;;;;;;;5113827;28;20058;-82
2023/07/25 04:30:13;;;;;;;7.32;6.35;;;;;;;;;;5115827;28;20052;-81
2023/07/25 04:32:40;;;;;;;7.93;5.82;;;;;;;;;;5113967;28;20051;-80
2023/07/25 04:35:08;;;;;;;10.10;6.82;;;;;;;;;;5115653;28;20556;-82
2023/07/25 04:37:35;;;;;;;6.53;6.05;;;;;;;;;;5113628;28;20048;-81
2023/07/25 04:40:02;;;;;;;8.93;7.68;;;;;;;;;;5113207;28;20469;-83
2023/07/25 04:42:30;;;;;;;11.65;8.38;;;;;;;;;;5115228;28;20050;-81
2023/07/25 04:44:57;;;;;;;8.25;7.50;;;;;;;;;;5113202;28;20499;-82
2023/07/25 04:47:25;;;;;;;9.90;6.97;;;;;;;;;;5114855;28;20093;-80
2023/07/25 04:49:52;;;;;;;7.80;6.40;;;;;;;;;;5114749;28;20048;-81
2023/07/25 04:52:19;;;;;;;11.65;8.80;;;;;;;;;;5113396;28;20560;-82
2023/07/25 04:54:47;;;;;;;9.18;7.72;;;;;;;;;;5114390;28;20054;-82
2023/07/25 04:57:16;;;;;;;9.00;7.38;;;;;;;;;;5113306;28;20048;-82
2023/07/25 04:59:43;;;;;;;9.68;8.13;;;;;;;;;;5113087;28;20043;-82
2023/07/25 05:02:10;;;;;;;8.70;6.78;;;;;;;;;;5114501;28;20043;-82
2023/07/25 05:04:37;;;;;;;11.35;7.72;;;;;;;;;;5114159;28;20449;-82
2023/07/25 05:07:05;;;;;;;12.20;8.13;;;;;;;;;;5112680;28;20051;-81
2023/07/25 05:09:32;;;;;;;14.75;9.30;;;;;;;;;;5113667;28;20100;-82
2023/07/25 05:11:59;;;;;;;10.70;8.35;;;;;;;;;;5112645;28;20052;-81
2023/07/25 05:14:26;;;;;;;10.18;7.82;;;;;;;;;;5114371;28;20104;-81
2023/07/25 05:16:53;;;;;;;17.35;8.80;;;;;;;;;;5113562;28;20056;-81
2023/07/25 05:19:21;;;;;;;10.07;8.35;;;;;;;;;;5111954;28;20047;-81
2023/07/25 05:21:48;;;;;;;11.65;7.97;;;;;;;;;;5111917;28;20047;-81
2023/07/25 05:24:15;;;;;;;9.23;8.32;;;;;;;;;;5113017;28;20495;-81
2023/07/25 05:26:42;;;;;;;7.97;7.28;;;;;;;;;;5111780;28;20058;-81
2023/07/25 05:29:10;;;;;;;13.52;7.18;;;;;;;;;;5112900;28;20579;-81
2023/07/25 05:31:37;;;;;;;7.47;6.43;;;;;;;;;;5112055;28;20048;-81
2023/07/25 05:34:04;;;;;;;5.57;5.10;;;;;;;;;;5112763;28;20047;-81
2023/07/25 05:36:31;;;;;;;4.75;4.38;;;;;;;;;;5115855;28;20073;-83
2023/07/25 05:38:59;;;;;;;9.20;4.05;;;;;;;;;;5119021;28;20051;-83
2023/07/25 05:41:26;;;;;;;6.10;3.10;;;;;;;;;;5118165;28;20040;-83
2023/07/25 05:43:53;;;;;;;6.68;3.38;;;;;;;;;;5117109;28;20051;-83
2023/07/25 05:46:20;;;;;;;6.38;2.80;;;;;;;;;;5118202;28;20047;-83
2023/07/25 05:48:48;;;;;;;6.82;3.15;;;;;;;;;;5117059;28;20051;-82
2023/07/25 05:51:15;;;;;;;3.83;2.80;;;;;;;;;;5117975;28;20051;-82
2023/07/25 05:53:42;;;;;;;4.47;3.33;;;;;;;;;;5121233;28;20048;-82
2023/07/25 05:56:09;;;;;;;3.92;2.70;;;;;;;;;;5120189;28;20051;-84
2023/07/25 05:58:37;;;;;;;12.00;3.10;;;;;;;;;;5119293;28;20097;-83
2023/07/25 06:01:04;;;;;;;2.80;2.53;;;;;;;;;;5120227;28;20044;-83
2023/07/25 06:03:31;;;;;;;4.35;2.78;;;;;;;;;;5117403;28;20051;-83
2023/07/25 06:05:59;;;;;;;6.03;2.60;;;;;;;;;;5117527;28;20127;-84
2023/07/25 06:08:26;;;;;;;16.95;3.97;;;;;;;;;;5118227;28;20051;-83
2023/07/25 06:10:53;;;;;;;18.20;4.00;;;;;;;;;;5117150;28;20425;-84
2023/07/25 06:13:21;;;;;;;38.20;4.43;;;;;;;;;;5116417;28;20048;-84
2023/07/25 06:15:48;;;;;;;9.65;2.83;;;;;;;;;;5116583;28;20052;-84
2023/07/25 06:18:15;;;;;;;7.00;2.58;;;;;;;;;;5116016;28;20057;-84
2023/07/25 06:20:43;;;;;;;2.92;2.42;;;;;;;;;;5115441;28;20047;-84
2023/07/25 06:23:10;;;;;;;10.80;2.88;;;;;;;;;;5116809;28;20071;-84
2023/07/25 06:25:37;;;;;;;15.05;3.55;;;;;;;;;;5115371;28;20051;-83
2023/07/25 06:28:05;;;;;;;13.52;3.67;;;;;;;;;;5114844;28;20047;-83
2023/07/25 06:30:33;;;;;;;7.85;3.10;;;;;;;;;;5115411;28;20485;-82
2023/07/25 06:33:00;;;;;;;9.90;3.67;;;;;;;;;;5115934;28;20047;-83
2023/07/25 06:35:27;;;;;;;6.00;3.00;;;;;;;;;;5115413;28;20058;-83
2023/07/25 06:37:54;;;;;;;10.73;2.88;;;;;;;;;;5116064;27;20052;-83
2023/07/25 06:40:22;;;;;;;14.68;3.55;;;;;;;;;;5115859;28;20092;-82
2023/07/25 06:42:49;;;;;;;8.68;3.22;;;;;;;;;;5116416;28;20491;-82
2023/07/25 06:45:16;;;;;;;16.73;3.63;;;;;;;;;;5116036;28;20116;-84
2023/07/25 06:47:43;;;;;;;10.68;2.70;;;;;;;;;;5115210;28;20043;-83
2023/07/25 06:50:11;;;;;;;8.75;3.33;;;;;;;;;;5114956;28;20051;-84
2023/07/25 06:52:38;;;;;;;8.95;2.90;;;;;;;;;;5115603;28;20048;-83
2023/07/25 06:55:06;;;;;;;5.43;2.22;;;;;;;;;;5113729;28;20048;-82
2023/07/25 06:57:33;;;;;;;16.35;3.25;;;;;;;;;;5113693;28;20066;-82
2023/07/25 07:00:00;;;;;;;26.05;4.68;;;;;;;;;;5113792;28;20157;-81
2023/07/25 07:02:28;;;;;;;25.92;4.10;;;;;;;;;;5112857;28;20051;-82
2023/07/25 07:04:58;;;;;;;22.55;4.00;;;;;;;;;;5112675;28;20444;-82
2023/07/25 07:07:30;;;;;;;16.20;3.10;;;;;;;;;;5113748;28;20043;-81
2023/07/25 07:09:57;;;;;;;14.70;2.78;;;;;;;;;;5113922;28;20047;-81
2023/07/25 07:12:24;;;;;;;15.18;3.30;;;;;;;;;;5113393;28;20137;-81
2023/07/25 07:14:52;;;;;;;7.53;2.33;;;;;;;;;;5119547;28;20051;-83
2023/07/25 07:17:19;;;;;;;5.60;2.58;;;;;;;;;;5119514;28;20101;-83
2023/07/25 07:19:47;;;;;;;3.30;2.00;;;;;;;;;;5120633;28;20044;-82
2023/07/25 07:22:14;;;;;;;1.73;1.63;;;;;;;;;;5121055;28;20112;-82
2023/07/25 07:24:41;;;;;;;1.95;1.75;;;;;;;;;;5121721;28;20104;-82
2023/07/25 07:27:08;;;;;;;1.70;1.60;;;;;;;;;;5118554;28;20584;-82
2023/07/25 07:29:35;;;;;;;2.30;1.75;;;;;;;;;;5120490;28;20047;-81
2023/07/25 07:32:03;;;;;;;1.58;1.48;;;;;;;;;;5119624;28;20073;-81
2023/07/25 07:34:30;;;;;;;2.08;1.70;;;;;;;;;;5119829;28;20069;-80
2023/07/25 07:36:57;;;;;;;1.48;1.38;;;;;;;;;;5116763;28;20533;-82
2023/07/25 07:39:25;;;;;;;1.83;1.73;;;;;;;;;;5117425;28;20040;-82
2023/07/25 07:41:53;;;;;;;2.85;1.88;;;;;;;;;;5116677;27;20062;-79
2023/07/25 07:44:21;;;;;;;2.28;1.90;;;;;;;;;;5116453;28;20460;-80
2023/07/25 07:46:51;;;;;;;1.80;1.70;;;;;;;;;;5116359;28;20063;-81
2023/07/25 07:49:18;;;;;;;2.92;1.95;;;;;;;;;;5117846;28;20050;-81
2023/07/25 07:51:45;;;;;;;2.05;1.95;;;;;;;;;;5115456;28;20043;-83
2023/07/25 07:54:33;;;;;;;5.13;2.50;;;;;;;;;;5115289;28;20053;-81
2023/07/25 07:57:00;;;;;;;2.45;2.28;;;;;;;;;;5116527;28;20044;-82
2023/07/25 07:59:28;;;;;;;5.57;2.80;;;;;;;;;;5115321;28;20047;-82
2023/07/25 08:01:55;;;;;;;3.10;2.90;;;;;;;;;;5115467;28;20139;-84
2023/07/25 08:04:22;;;;;;;3.60;3.10;;;;;;;;;;5115142;28;20044;-84
2023/07/25 08:06:49;;;;;;;3.40;3.10;;;;;;;;;;5114914;28;20066;-82
2023/07/25 08:09:17;;;;;;;3.63;3.33;;;;;;;;;;5113186;27;20495;-83
2023/07/25 08:11:44;;;;;;;3.95;3.65;;;;;;;;;;5112417;28;20051;-83
2023/07/25 08:14:11;;;;;;;6.18;3.88;;;;;;;;;;5115631;28;20116;-83
2023/07/25 08:16:38;;;;;;;5.82;3.80;;;;;;;;;;5113404;28;20051;-83
2023/07/25 08:19:06;;;;;;;4.13;3.83;;;;;;;;;;5112957;28;20272;-81
2023/07/25 08:21:33;;;;;;;5.82;4.22;;;;;;;;;;5113413;28;20044;-83
2023/07/25 08:24:03;;;;;;;4.88;4.28;;;;;;;;;;5112902;28;20050;-84
2023/07/25 08:26:31;;;;;;;4.30;3.83;;;;;;;;;;5112439;28;20060;-82
2023/07/25 08:28:58;;;;;;;6.40;4.90;;;;;;;;;;5113639;28;20039;-82
2023/07/25 08:31:25;;;;;;;5.10;4.70;;;;;;;;;;5112313;28;20047;-82
2023/07/25 08:33:53;;;;;;;5.85;4.75;;;;;;;;;;5112059;28;20135;-81
2023/07/25 08:36:20;;;;;;;14.38;5.32;;;;;;;;;;5113023;28;20058;-81
2023/07/25 08:38:47;;;;;;;9.55;5.22;;;;;;;;;;5113235;28;20054;-81
2023/07/25 08:41:19;;;;;;;8.05;5.95;;;;;;;;;;5111778;28;20426;-81
2023/07/25 08:43:47;;;;;;;7.00;5.70;;;;;;;;;;5112047;28;20089;-81
2023/07/25 08:46:15;;;;;;;8.27;5.90;;;;;;;;;;5112747;28;20101;-80
2023/07/25 08:48:43;;;;;;;6.82;6.10;;;;;;;;;;5113003;28;20059;-81
2023/07/25 08:51:20;;;;;;;10.38;6.97;;;;;;;;;;5112930;28;20108;-82
2023/07/25 08:53:54;;;;;;;8.15;6.38;;;;;;;;;;5117199;28;20047;-83
2023/07/25 08:56:22;;;;;;;7.28;6.57;;;;;;;;;;5119291;28;20423;-84
2023/07/25 08:58:50;;;;;;;6.50;5.97;;;;;;;;;;5117353;28;20486;-82
2023/07/25 09:01:17;;;;;;;8.32;7.63;;;;;;;;;;5116178;28;20093;-82
2023/07/25 09:03:46;;;;;;;7.38;6.63;;;;;;;;;;5117136;28;20052;-83
2023/07/25 09:06:14;;;;;;;9.30;7.85;;;;;;;;;;5115988;28;20104;-83
2023/07/25 09:08:41;;;;;;;8.35;7.57;;;;;;;;;;5116330;28;20507;-81
2023/07/25 09:11:09;;;;;;;9.30;8.43;;;;;;;;;;5115766;28;20101;-82
2023/07/25 09:13:37;;;;;;;13.02;8.23;;;;;;;;;;5114882;28;20055;-83
2023/07/25 09:16:05;;;;;;;12.02;8.93;;;;;;;;;;5114841;28;20425;-83
2023/07/25 09:18:32;;;;;;;10.25;9.23;;;;;;;;;;5114789;28;20048;-83
2023/07/25 09:21:00;;;;;;;9.80;8.73;;;;;;;;;;5113824;28;20039;-82
2023/07/25 09:23:27;;;;;;;9.80;8.90;;;;;;;;;;5114118;28;20108;-81
2023/07/25 09:26:04;;;;;;;9.40;8.20;;;;;;;;;;5114210;28;20100;-82
2023/07/25 09:28:32;;;;;;;8.45;7.75;;;;;;;;;;5119228;28;20560;-82
2023/07/25 09:31:04;;;;;;;9.35;8.45;;;;;;;;;;5118969;28;20048;-83
2023/07/25 09:33:31;;;;;;;9.77;8.63;;;;;;;;;;5117524;28;20044;-82
2023/07/25 09:35:59;;;;;;;10.65;9.65;;;;;;;;;;5117873;28;20404;-83
2023/07/25 09:38:26;;;;;;;11.70;9.25;;;;;;;;;;5118182;28;20058;-83
2023/07/25 09:40:55;;;;;;;9.45;8.55;;;;;;;;;;5118222;28;20470;-81
2023/07/25 09:43:26;;;;;;;9.05;8.05;;;;;;;;;;5116317;28;20047;-83
2023/07/25 09:45:54;;;;;;;9.15;8.23;;;;;;;;;;5116308;28;20495;-83
2023/07/25 09:48:22;;;;;;;10.70;8.75;;;;;;;;;;5117507;28;20055;-83
2023/07/25 09:50:51;;;;;;;9.50;8.57;;;;;;;;;;5115797;28;20048;-81
2023/07/25 09:53:18;;;;;;;9.00;8.20;;;;;;;;;;5116915;28;20112;-81
2023/07/25 09:55:45;;;;;;;10.18;8.32;;;;;;;;;;5117786;28;20643;-83
2023/07/25 09:58:13;;;;;;;10.00;9.05;;;;;;;;;;5116794;28;20051;-83
2023/07/25 10:00:40;;;;;;;10.10;9.15;;;;;;;;;;5115896;28;20048;-83
2023/07/25 10:03:09;;;;;;;8.68;7.97;;;;;;;;;;5115249;28;20055;-81
2023/07/25 10:05:43;;;;;;;9.52;8.45;;;;;;;;;;5115006;28;20054;-82
2023/07/25 10:08:14;;;;;;;8.35;7.65;;;;;;;;;;5114821;28;20487;-83
2023/07/25 10:10:42;;;;;;;8.50;7.63;;;;;;;;;;5115208;28;20112;-81
2023/07/25 10:13:10;;;;;;;8.25;7.47;;;;;;;;;;5116105;28;20112;-81
2023/07/25 10:15:37;;;;;;;11.15;8.68;;;;;;;;;;5117414;28;20043;-81
2023/07/25 10:18:16;;;;;;;8.88;8.05;;;;;;;;;;5117050;28;20055;-81
2023/07/25 10:20:44;;;;;;;9.43;8.30;;;;;;;;;;5116219;28;20261;-81
2023/07/25 10:23:11;;;;;;;8.75;8.05;;;;;;;;;;5118901;28;20047;-81
2023/07/25 10:25:39;;;;;;;11.43;8.20;;;;;;;;;;5117136;28;20043;-82
2023/07/25 10:28:06;;;;;;;13.27;8.13;;;;;;;;;;5118342;28;20548;-82
2023/07/25 10:30:54;;;;;;;8.18;7.38;;;;;;;;;;5116145;28;20052;-80
2023/07/25 10:33:24;;;;;;;8.38;7.50;;;;;;;;;;5120535;28;20396;-83
2023/07/25 10:35:55;;;;;;;8.50;7.68;;;;;;;;;;5118845;28;20051;-83
2023/07/25 10:38:24;;;;;;;8.27;6.38;;;;;;;;;;5118664;28;20392;-82
2023/07/25 10:40:52;;;;;;;6.93;6.32;;;;;;;;;;5119257;28;20047;-82
2023/07/25 10:43:26;;;;;;;7.25;6.65;;;;;;;;;;5117728;28;20058;-81
2023/07/25 10:45:54;;;;;;;7.97;6.85;;;;;;;;;;5118268;28;20051;-82
2023/07/25 10:48:28;;;;;;;6.75;6.13;;;;;;;;;;5118444;28;20047;-82
2023/07/25 10:50:56;;;;;;;5.80;5.40;;;;;;;;;;5117319;28;20135;-82
2023/07/25 10:53:24;;;;;;;6.10;5.60;;;;;;;;;;5116537;28;20058;-83
2023/07/25 10:56:03;;;;;;;6.63;6.05;;;;;;;;;;5116353;28;20047;-83
2023/07/25 10:58:39;;;;;;;5.90;5.38;;;;;;;;;;5117766;28;20060;-83
2023/07/25 11:01:07;;;;;;;5.35;4.95;;;;;;;;;;5115665;28;20507;-82
2023/07/25 11:03:35;;;;;;;6.18;5.47;;;;;;;;;;5115845;28;20423;-81
2023/07/25 11:06:23;;;;;;;4.88;4.57;;;;;;;;;;5116747;28;20135;-82
2023/07/25 11:08:51;;;;;;;6.45;5.88;;;;;;;;;;5095143;28;20097;-81
2023/07/25 11:11:19;;;;;;;6.07;5.68;;;;;;;;;;5115275;28;20096;-81
2023/07/25 11:13:46;;;;;;;6.25;5.85;;;;;;;;;;5115205;28;20453;-82
2023/07/25 11:16:14;;;;;;;5.50;5.10;;;;;;;;;;5116166;28;20047;-80
2023/07/25 11:18:51;;;;;;;6.13;5.63;;;;;;;;;;5115081;28;20051;-82
2023/07/25 11:21:18;;;;;;;6.15;5.72;;;;;;;;;;5115786;28;20439;-81
2023/07/25 11:23:46;;;;;;;5.25;4.90;;;;;;;;;;5114413;28;20468;-81
2023/07/25 11:26:13;;;;;;;6.10;5.70;;;;;;;;;;5113812;28;20054;-83
2023/07/25 11:28:41;;;;;;;5.40;4.90;;;;;;;;;;5113895;28;20048;-83
2023/07/25 11:31:08;;;;;;;5.47;5.18;;;;;;;;;;5115847;27;20517;-83
2023/07/25 11:33:40;;;;;;;4.85;4.45;;;;;;;;;;5115506;28;20475;-82
2023/07/25 11:36:07;;;;;;;4.18;3.97;;;;;;;;;;5113598;28;20047;-81
2023/07/25 11:38:37;;;;;;;4.15;3.95;;;;;;;;;;5115049;28;20106;-83
2023/07/25 11:41:05;;;;;;;3.45;3.25;;;;;;;;;;5113386;28;20047;-80
2023/07/25 11:43:32;;;;;;;4.60;4.20;;;;;;;;;;5115031;28;20044;-81
2023/07/25 11:46:00;;;;;;;4.57;4.20;;;;;;;;;;5112726;28;20043;-80
2023/07/25 11:48:28;;;;;;;4.85;4.45;;;;;;;;;;5113819;28;20043;-82
2023/07/25 11:50:55;;;;;;;6.63;4.88;;;;;;;;;;5113898;28;20047;-81
2023/07/25 11:53:25;;;;;;;5.88;4.70;;;;;;;;;;5113595;28;20044;-80
2023/07/25 11:55:54;;;;;;;6.43;5.63;;;;;;;;;;5117261;28;20461;-81
2023/07/25 11:58:22;;;;;;;7.20;6.60;;;;;;;;;;5115381;28;20047;-80
2023/07/25 12:00:54;;;;;;;5.70;5.30;;;;;;;;;;5113246;28;20101;-81
2023/07/25 12:03:23;;;;;;;5.40;5.10;;;;;;;;;;5114326;28;20043;-81
2023/07/25 12:05:57;;;;;;;5.28;4.88;;;;;;;;;;5112736;28;20079;-79
2023/07/25 12:08:35;;;;;;;6.22;5.00;;;;;;;;;;5113023;28;20048;-82
2023/07/25 12:11:07;;;;;;;5.65;5.15;;;;;;;;;;5115023;28;20070;-81
2023/07/25 12:13:46;;;;;;;6.20;5.80;;;;;;;;;;5118702;28;20078;-82
2023/07/25 12:16:29;;;;;;;6.38;5.80;;;;;;;;;;5118336;28;20056;-82
2023/07/25 12:18:58;;;;;;;5.97;5.57;;;;;;;;;;5116696;28;20113;-82
2023/07/25 12:21:29;;;;;;;6.45;5.82;;;;;;;;;;5116080;28;20650;-81
2023/07/25 12:24:00;;;;;;;6.90;6.30;;;;;;;;;;5117572;28;20047;-82
2023/07/25 12:26:29;;;;;;;5.60;5.25;;;;;;;;;;5114961;28;20047;-82
2023/07/25 12:28:59;;;;;;;4.75;4.45;;;;;;;;;;5115372;28;20043;-82
2023/07/25 12:31:26;;;;;;;4.97;4.57;;;;;;;;;;5116551;28;20047;-81
2023/07/25 12:33:53;;;;;;;4.50;4.20;;;;;;;;;;5116127;28;20043;-82
2023/07/25 12:36:21;;;;;;;4.53;4.15;;;;;;;;;;5113962;28;20051;-82
2023/07/25 12:38:48;;;;;;;4.07;3.60;;;;;;;;;;5116074;28;20427;-81
2023/07/25 12:41:15;;;;;;;3.90;3.60;;;;;;;;;;5114174;28;20043;-81
2023/07/25 12:43:43;;;;;;;4.10;3.70;;;;;;;;;;5115202;28;20047;-80
2023/07/25 12:46:10;;;;;;;4.60;4.25;;;;;;;;;;5114904;28;20419;-82
2023/07/25 12:48:37;;;;;;;3.70;3.50;;;;;;;;;;5113322;28;20051;-81
2023/07/25 12:51:05;;;;;;;4.57;4.00;;;;;;;;;;5115209;28;20051;-80
2023/07/25 12:53:32;;;;;;;3.90;3.70;;;;;;;;;;5114953;28;20488;-82
2023/07/25 12:55:59;;;;;;;4.88;4.57;;;;;;;;;;5113141;28;20101;-81
2023/07/25 12:58:29;;;;;;;3.85;3.65;;;;;;;;;;5112844;28;20686;-81
2023/07/25 13:00:57;;;;;;;3.92;3.63;;;;;;;;;;5113078;28;20549;-82
2023/07/25 13:03:25;;;;;;;3.70;3.40;;;;;;;;;;5113233;28;20043;-83
2023/07/25 13:05:52;;;;;;;4.50;4.10;;;;;;;;;;5113729;28;20403;-82
2023/07/25 13:08:20;;;;;;;4.38;4.10;;;;;;;;;;5113930;28;20104;-82
2023/07/25 13:10:47;;;;;;;4.32;3.90;;;;;;;;;;5112663;28;20092;-80
2023/07/25 13:13:15;;;;;;;4.00;3.80;;;;;;;;;;5113567;28;20062;-84
2023/07/25 13:15:42;;;;;;;4.25;3.95;;;;;;;;;;5112014;28;20043;-81
2023/07/25 13:18:10;;;;;;;4.85;3.80;;;;;;;;;;5113088;28;20071;-81
2023/07/25 13:20:37;;;;;;;5.68;3.97;;;;;;;;;;5112929;28;20054;-83
2023/07/25 13:23:09;;;;;;;4.65;4.35;;;;;;;;;;5111802;28;20055;-81
2023/07/25 13:25:37;;;;;;;3.92;3.67;;;;;;;;;;5111179;28;20568;-81
2023/07/25 13:28:04;;;;;;;3.30;3.20;;;;;;;;;;5111928;28;20055;-81
2023/07/25 13:30:31;;;;;;;3.20;3.00;;;;;;;;;;5111909;28;20046;-82
2023/07/25 13:32:59;;;;;;;3.95;3.75;;;;;;;;;;5112932;28;20052;-81
2023/07/25 13:35:26;;;;;;;2.78;2.67;;;;;;;;;;5112988;28;20047;-80
2023/07/25 13:37:53;;;;;;;2.75;2.65;;;;;;;;;;5111133;28;20073;-81
2023/07/25 13:40:21;;;;;;;2.97;2.88;;;;;;;;;;5111517;28;20059;-82
2023/07/25 13:42:48;;;;;;;2.70;2.60;;;;;;;;;;5111298;28;20044;-82
2023/07/25 13:45:15;;;;;;;3.25;2.85;;;;;;;;;;5112503;28;20050;-82
2023/07/25 13:47:43;;;;;;;2.40;2.30;;;;;;;;;;5112589;28;20046;-81
2023/07/25 13:50:10;;;;;;;2.40;2.30;;;;;;;;;;5115492;28;20096;-83
2023/07/25 13:52:38;;;;;;;2.60;2.50;;;;;;;;;;5118766;28;20195;-84
2023/07/25 13:55:05;;;;;;;2.20;2.10;;;;;;;;;;5117744;28;20074;-83
2023/07/25 13:57:32;;;;;;;3.38;3.15;;;;;;;;;;5115312;28;20055;-82
2023/07/25 14:00:05;;;;;;;5.28;3.67;;;;;;;;;;5115182;28;20572;-83
2023/07/25 14:02:33;;;;;;;3.83;3.25;;;;;;;;;;5116010;28;20119;-82
2023/07/25 14:05:01;;;;;;;7.63;3.70;;;;;;;;;;5115808;28;20044;-82
2023/07/25 14:07:28;;;;;;;2.90;2.00;;;;;;;;;;5115588;28;20039;-81
2023/07/25 14:09:55;;;;;;;7.38;1.40;;;;;;;;;;5114573;28;20507;-80
2023/07/25 14:12:23;;;;;;;5.95;1.42;;;;;;;;;;5114104;28;20100;-78
2023/07/25 14:14:50;;;;;;;4.88;1.77;;;;;;;;;;5117762;28;20052;-80
2023/07/25 14:17:18;;;;;;;1.67;1.48;;;;;;;;;;5118859;28;20051;-79
2023/07/25 14:19:45;;;;;;;2.67;1.52;;;;;;;;;;5116804;28;20468;-81
2023/07/25 14:22:12;;;;;;;1.88;1.63;;;;;;;;;;5116500;28;20050;-79
2023/07/25 14:24:39;;;;;;;2.83;1.55;;;;;;;;;;5117884;28;20044;-81
2023/07/25 14:27:07;;;;;;;3.53;1.30;;;;;;;;;;5116664;28;20079;-80
2023/07/25 14:29:34;;;;;;;1.95;1.70;;;;;;;;;;5122173;28;20043;-82
2023/07/25 14:32:01;;;;;;;2.25;1.60;;;;;;;;;;5125270;28;20495;-82
2023/07/25 14:34:28;;;;;;;2.95;1.60;;;;;;;;;;5123561;28;20595;-82
2023/07/25 14:36:56;;;;;;;2.10;1.58;;;;;;;;;;5119410;28;20051;-83
2023/07/25 14:39:23;;;;;;;8.05;2.20;;;;;;;;;;5120689;28;20115;-82
2023/07/25 14:41:50;;;;;;;1.85;1.75;;;;;;;;;;5119707;28;20457;-82
2023/07/25 14:44:18;;;;;;;3.58;2.58;;;;;;;;;;5117880;28;20048;-82
2023/07/25 14:46:45;;;;;;;2.53;2.33;;;;;;;;;;5117990;28;20043;-83